Time;durP1;ratioP1;P1;durP2;ratioP2;P2;SDS_P1;SDS_P2;PMS_P1;PMS_P2;Temp;Humidity;BMP_temperature;BMP_pressure;BME280_temperature;BME280_humidity;BME280_pressure;Samples;Min_cycle;Max_cycle;Signal;HPM_P1;HPM_P2
2023/03/20 00:01:43;;;;;;;22.90;13.52;;;8.20;99.90;;;;;;5044850;28;20032;-74
2023/03/20 00:04:09;;;;;;;23.30;13.70;;;8.20;99.90;;;;;;5056430;28;20059;-74
2023/03/20 00:06:35;;;;;;;23.92;13.35;;;8.30;99.90;;;;;;5066522;28;20032;-72
2023/03/20 00:09:01;;;;;;;24.20;13.25;;;8.40;99.90;;;;;;5052262;28;20036;-75
2023/03/20 00:11:33;;;;;;;24.27;13.02;;;8.40;99.90;;;;;;5049025;28;20471;-75
2023/03/20 00:14:01;;;;;;;21.80;12.60;;;8.40;99.90;;;;;;5061522;28;20029;-75
2023/03/20 00:16:37;;;;;;;27.85;13.48;;;8.40;99.90;;;;;;5054627;28;20065;-75
2023/03/20 00:19:05;;;;;;;25.70;12.40;;;8.40;99.90;;;;;;5059549;28;20496;-72
2023/03/20 00:21:31;;;;;;;19.10;11.88;;;8.40;99.90;;;;;;5057915;28;20079;-74
2023/03/20 00:23:57;;;;;;;22.02;11.18;;;8.40;99.90;;;;;;5068331;28;20040;-75
2023/03/20 00:26:32;;;;;;;20.02;11.05;;;8.50;99.90;;;;;;5050525;28;20036;-72
2023/03/20 00:28:58;;;;;;;18.85;11.00;;;8.50;99.90;;;;;;5067895;28;20040;-74
2023/03/20 00:31:27;;;;;;;19.10;11.13;;;8.50;99.90;;;;;;5051065;28;20466;-74
2023/03/20 00:33:55;;;;;;;15.63;7.88;;;8.50;99.90;;;;;;5063185;28;20099;-72
2023/03/20 00:36:21;;;;;;;18.67;10.35;;;8.40;99.90;;;;;;5052362;28;20025;-74
2023/03/20 00:38:46;;;;;;;20.85;11.20;;;8.20;99.90;;;;;;5058039;28;20038;-67
2023/03/20 00:41:43;;;;;;;20.75;11.70;;;8.30;99.90;;;;;;5038114;28;20025;-73
2023/03/20 00:44:25;;;;;;;21.38;11.90;;;8.30;99.90;;;;;;5057282;28;20040;-75
2023/03/20 00:46:55;;;;;;;24.90;12.98;;;8.40;99.90;;;;;;5061744;28;20499;-75
2023/03/20 00:49:31;;;;;;;21.70;12.45;;;8.40;99.90;;;;;;5050485;28;20029;-74
2023/03/20 00:51:57;;;;;;;23.25;12.32;;;8.40;99.90;;;;;;5059934;28;20025;-74
2023/03/20 00:54:23;;;;;;;21.23;11.63;;;8.40;99.90;;;;;;5065310;28;20477;-72
2023/03/20 00:56:58;;;;;;;17.08;10.02;;;8.40;99.90;;;;;;5054217;28;20032;-67
2023/03/20 00:59:27;;;;;;;19.58;10.35;;;8.30;99.90;;;;;;5050570;28;20379;-75
2023/03/20 01:01:53;;;;;;;20.40;11.30;;;8.20;99.90;;;;;;5063653;28;20499;-74
2023/03/20 01:04:20;;;;;;;20.42;10.98;;;8.10;99.90;;;;;;5052713;28;20033;-75
2023/03/20 01:06:46;;;;;;;20.50;12.00;;;8.00;99.90;;;;;;5050328;28;20037;-74
2023/03/20 01:09:11;;;;;;;23.58;12.48;;;8.10;99.90;;;;;;5050394;28;20025;-75
2023/03/20 01:11:39;;;;;;;24.77;13.70;;;8.10;99.90;;;;;;5065013;28;20048;-75
2023/03/20 01:14:13;;;;;;;23.67;12.43;;;8.20;99.90;;;;;;5060798;28;20038;-73
2023/03/20 01:16:39;;;;;;;19.08;11.10;;;8.20;99.90;;;;;;5060898;28;20032;-75
2023/03/20 01:19:04;;;;;;;23.60;12.05;;;8.20;99.90;;;;;;5049712;28;20104;-71
2023/03/20 01:21:30;;;;;;;19.80;11.75;;;8.10;99.90;;;;;;5054603;28;20064;-74
2023/03/20 01:23:55;;;;;;;21.95;12.00;;;8.10;99.90;;;;;;5056167;28;20056;-75
2023/03/20 01:26:33;;;;;;;28.67;12.45;;;8.10;99.90;;;;;;5061380;28;20052;-75
2023/03/20 01:28:59;;;;;;;21.98;11.88;;;8.10;99.90;;;;;;5059212;28;20456;-75
2023/03/20 01:31:25;;;;;;;23.55;12.65;;;8.10;99.90;;;;;;5051867;28;20075;-73
2023/03/20 01:33:51;;;;;;;22.90;13.02;;;8.10;99.90;;;;;;5056904;28;20480;-66
2023/03/20 01:36:21;;;;;;;25.25;13.48;;;8.10;99.90;;;;;;5057746;28;20032;-75
2023/03/20 01:38:54;;;;;;;24.65;13.02;;;8.10;99.90;;;;;;5052251;28;20385;-74
2023/03/20 01:41:21;;;;;;;30.90;13.75;;;8.20;99.90;;;;;;5057207;28;20029;-74
2023/03/20 01:43:47;;;;;;;23.60;13.50;;;8.20;99.90;;;;;;5043460;28;20041;-75
2023/03/20 01:46:13;;;;;;;27.85;13.88;;;8.10;99.90;;;;;;5060789;28;20038;-69
2023/03/20 01:48:56;;;;;;;23.70;13.55;;;8.20;99.90;;;;;;5049470;28;20029;-74
2023/03/20 01:51:34;;;;;;;26.90;13.90;;;8.20;99.90;;;;;;5054687;28;20096;-75
2023/03/20 01:54:22;;;;;;;27.05;13.93;;;8.20;99.90;;;;;;5055432;28;20036;-73
2023/03/20 01:57:10;;;;;;;25.13;13.82;;;8.20;99.90;;;;;;5044650;28;20391;-74
2023/03/20 01:59:48;;;;;;;25.10;13.48;;;8.30;99.90;;;;;;5047936;28;20072;-74
2023/03/20 02:02:16;;;;;;;25.02;13.95;;;8.30;99.90;;;;;;5058021;28;20037;-75
2023/03/20 02:04:46;;;;;;;23.92;13.40;;;8.30;99.90;;;;;;5062389;28;20033;-75
2023/03/20 02:07:15;;;;;;;29.85;13.48;;;8.30;99.90;;;;;;5048796;28;20616;-73
2023/03/20 02:09:41;;;;;;;20.42;10.70;;;8.30;99.90;;;;;;5044693;28;20043;-75
2023/03/20 02:12:07;;;;;;;22.23;10.65;;;8.30;99.90;;;;;;5041941;28;20025;-74
2023/03/20 02:14:34;;;;;;;19.73;9.90;;;8.30;99.90;;;;;;5055421;28;20035;-74
2023/03/20 02:17:01;;;;;;;18.48;9.85;;;8.30;99.90;;;;;;5065821;28;20025;-73
2023/03/20 02:19:46;;;;;;;19.38;9.70;;;8.30;99.90;;;;;;5054446;28;20028;-75
2023/03/20 02:22:37;;;;;;;14.60;7.35;;;8.30;99.90;;;;;;5059360;28;20568;-75
2023/03/20 02:25:24;;;;;;;12.63;7.22;;;8.30;99.90;;;;;;5043435;28;20033;-74
2023/03/20 02:28:12;;;;;;;14.07;6.78;;;8.40;99.90;;;;;;5041571;28;20520;-73
2023/03/20 02:30:42;;;;;;;10.80;5.38;;;8.40;99.90;;;;;;5046190;28;20032;-73
2023/03/20 02:33:26;;;;;;;12.32;5.90;;;8.40;99.90;;;;;;5053714;28;20037;-74
2023/03/20 02:36:07;;;;;;;10.05;5.53;;;8.40;99.90;;;;;;5040233;28;20059;-66
2023/03/20 02:39:01;;;;;;;9.70;5.68;;;8.40;99.90;;;;;;5049764;28;20029;-71
2023/03/20 02:41:57;;;;;;;9.13;4.70;;;8.40;99.90;;;;;;5038986;28;20481;-75
2023/03/20 02:45:07;;;;;;;8.55;4.80;;;8.50;99.90;;;;;;5052922;28;20571;-71
2023/03/20 02:47:54;;;;;;;8.83;4.47;;;8.60;99.90;;;;;;5047677;28;20600;-72
2023/03/20 02:50:35;;;;;;;9.10;4.72;;;8.50;99.90;;;;;;5044945;28;20036;-74
2023/03/20 02:53:42;;;;;;;9.13;4.72;;;8.50;99.90;;;;;;5059128;28;20036;-75
2023/03/20 02:56:29;;;;;;;9.27;5.00;;;8.50;99.90;;;;;;5012386;28;20048;-74
2023/03/20 02:59:22;;;;;;;10.32;5.63;;;8.40;99.90;;;;;;5058960;28;20055;-67
2023/03/20 03:01:57;;;;;;;11.30;5.63;;;8.40;99.90;;;;;;5032869;28;20044;-73
2023/03/20 03:04:27;;;;;;;10.70;5.70;;;8.40;99.90;;;;;;5055957;28;20109;-71
2023/03/20 03:06:55;;;;;;;13.57;5.78;;;8.30;99.90;;;;;;5057773;28;20060;-74
2023/03/20 03:09:35;;;;;;;11.18;5.93;;;8.40;99.90;;;;;;5050332;28;20041;-74
2023/03/20 03:12:16;;;;;;;12.35;6.60;;;8.40;99.90;;;;;;5068411;28;20384;-74
2023/03/20 03:14:52;;;;;;;11.43;6.13;;;8.40;99.90;;;;;;5062136;28;20431;-72
2023/03/20 03:17:22;;;;;;;18.38;6.30;;;8.40;99.90;;;;;;5057026;28;20036;-74
2023/03/20 03:19:51;;;;;;;11.70;6.75;;;8.40;99.90;;;;;;5053876;28;20045;-75
2023/03/20 03:22:18;;;;;;;11.87;7.13;;;8.30;99.90;;;;;;5052209;28;20657;-75
2023/03/20 03:24:49;;;;;;;14.63;7.00;;;8.30;99.90;;;;;;5050705;28;20310;-72
2023/03/20 03:27:38;;;;;;;16.90;7.93;;;8.30;99.90;;;;;;5049950;28;20493;-71
2023/03/20 03:30:24;;;;;;;13.68;6.82;;;8.30;99.90;;;;;;5048555;28;21859;-71
2023/03/20 03:33:12;;;;;;;13.20;7.63;;;8.20;99.90;;;;;;5052648;28;20061;-73
2023/03/20 03:35:39;;;;;;;15.23;7.40;;;8.30;99.90;;;;;;5048022;28;20040;-74
2023/03/20 03:38:19;;;;;;;13.88;7.18;;;8.20;99.90;;;;;;5044313;28;20021;-71
2023/03/20 03:41:05;;;;;;;13.60;7.32;;;8.20;99.90;;;;;;5056391;28;20029;-71
2023/03/20 03:43:37;;;;;;;14.23;7.15;;;8.20;99.90;;;;;;5055245;28;20033;-75
2023/03/20 03:46:26;;;;;;;12.68;7.05;;;8.20;99.90;;;;;;5065532;28;20108;-74
2023/03/20 03:48:55;;;;;;;12.90;7.47;;;8.20;99.90;;;;;;5065108;28;20095;-71
2023/03/20 03:51:25;;;;;;;15.38;7.95;;;8.10;99.90;;;;;;5050262;28;20159;-75
2023/03/20 03:54:11;;;;;;;11.57;6.80;;;8.10;99.90;;;;;;5048741;28;20036;-74
2023/03/20 03:56:39;;;;;;;12.40;6.28;;;8.10;99.90;;;;;;5047114;28;20047;-74
2023/03/20 03:59:11;;;;;;;13.98;7.30;;;8.20;99.90;;;;;;5055872;28;20033;-71
2023/03/20 04:01:38;;;;;;;14.60;7.38;;;8.10;99.90;;;;;;5055676;28;20064;-75
2023/03/20 04:04:08;;;;;;;13.05;7.22;;;8.10;99.90;;;;;;5054617;28;20044;-75
2023/03/20 04:06:34;;;;;;;12.00;6.68;;;8.10;99.90;;;;;;5051790;28;20092;-74
2023/03/20 04:09:00;;;;;;;13.77;6.57;;;8.10;99.90;;;;;;5066123;28;20462;-66
2023/03/20 04:11:29;;;;;;;13.02;6.95;;;8.10;99.90;;;;;;5061936;28;20058;-73
2023/03/20 04:13:55;;;;;;;13.60;7.55;;;8.10;99.90;;;;;;5031704;28;20043;-72
2023/03/20 04:16:23;;;;;;;16.80;8.40;;;8.10;99.90;;;;;;5056837;28;20643;-74
2023/03/20 04:18:49;;;;;;;18.75;10.90;;;8.00;99.90;;;;;;5058899;28;20572;-74
2023/03/20 04:21:15;;;;;;;22.20;12.07;;;8.00;99.90;;;;;;5066617;28;20048;-71
2023/03/20 04:23:41;;;;;;;23.80;12.70;;;8.00;99.90;;;;;;5057342;28;20063;-74
2023/03/20 04:26:07;;;;;;;24.05;13.30;;;8.00;99.90;;;;;;5066051;28;20040;-74
2023/03/20 04:28:33;;;;;;;23.60;13.45;;;8.00;99.90;;;;;;5060951;28;20048;-70
2023/03/20 04:31:01;;;;;;;29.73;14.20;;;8.00;99.90;;;;;;5054457;28;20029;-67
2023/03/20 04:33:26;;;;;;;27.88;14.32;;;8.00;99.90;;;;;;5060512;28;20032;-74
2023/03/20 04:35:53;;;;;;;32.17;15.15;;;8.00;99.90;;;;;;5058227;28;20112;-73
2023/03/20 04:38:19;;;;;;;29.52;15.18;;;8.00;99.90;;;;;;5063659;28;20830;-74
2023/03/20 04:40:46;;;;;;;31.67;14.38;;;7.90;99.90;;;;;;5054197;28;20040;-73
2023/03/20 04:43:12;;;;;;;26.73;13.80;;;7.90;99.90;;;;;;5068827;28;20043;-75
2023/03/20 04:45:38;;;;;;;26.75;13.68;;;7.90;99.90;;;;;;5054743;28;20040;-75
2023/03/20 04:48:05;;;;;;;23.70;12.63;;;7.90;99.90;;;;;;5062159;28;20071;-66
2023/03/20 04:50:30;;;;;;;26.58;13.38;;;7.90;99.90;;;;;;5051126;28;20426;-74
2023/03/20 04:52:56;;;;;;;25.42;12.57;;;7.90;99.90;;;;;;5059414;28;20090;-75
2023/03/20 04:55:22;;;;;;;22.38;11.15;;;7.90;99.90;;;;;;5068102;28;20107;-73
2023/03/20 04:57:48;;;;;;;19.77;10.85;;;7.90;99.90;;;;;;5059088;28;20385;-74
2023/03/20 05:00:15;;;;;;;21.10;10.55;;;7.80;99.90;;;;;;5059528;28;20121;-71
2023/03/20 05:02:41;;;;;;;21.33;10.10;;;7.80;99.90;;;;;;5055285;28;20033;-74
2023/03/20 05:05:07;;;;;;;18.58;10.55;;;7.80;99.90;;;;;;5064493;28;20127;-75
2023/03/20 05:07:33;;;;;;;20.92;10.35;;;7.80;99.90;;;;;;5063105;28;20033;-74
2023/03/20 05:09:59;;;;;;;17.85;8.82;;;7.80;99.90;;;;;;5063104;28;20024;-74
2023/03/20 05:12:26;;;;;;;18.10;9.32;;;7.80;99.90;;;;;;5064759;28;20103;-72
2023/03/20 05:14:53;;;;;;;16.17;8.30;;;7.80;99.90;;;;;;5052973;28;20028;-74
2023/03/20 05:17:20;;;;;;;14.52;8.07;;;7.80;99.90;;;;;;5061983;28;20092;-74
2023/03/20 05:19:46;;;;;;;14.85;7.15;;;7.70;99.90;;;;;;5047440;28;20385;-75
2023/03/20 05:22:12;;;;;;;17.27;8.02;;;7.80;99.90;;;;;;5067624;28;20055;-75
2023/03/20 05:24:37;;;;;;;13.02;7.05;;;7.70;99.90;;;;;;5065663;28;20048;-73
2023/03/20 05:27:03;;;;;;;13.75;6.82;;;7.70;99.90;;;;;;5064658;28;20031;-67
2023/03/20 05:29:29;;;;;;;13.60;6.70;;;7.70;99.90;;;;;;5046280;28;20029;-71
2023/03/20 05:31:55;;;;;;;10.80;5.90;;;7.70;99.90;;;;;;5050981;28;20090;-71
2023/03/20 05:34:20;;;;;;;11.15;6.10;;;7.70;99.90;;;;;;5055877;28;20032;-74
2023/03/20 05:36:46;;;;;;;9.02;5.25;;;7.70;99.90;;;;;;5055115;28;20078;-75
2023/03/20 05:39:12;;;;;;;10.45;5.35;;;7.70;99.90;;;;;;5049974;28;20020;-75
2023/03/20 05:41:37;;;;;;;9.40;5.50;;;7.70;99.90;;;;;;5056242;28;20036;-73
2023/03/20 05:44:03;;;;;;;8.15;4.72;;;7.70;99.90;;;;;;5041415;28;20037;-67
2023/03/20 05:46:29;;;;;;;11.73;4.82;;;7.70;99.90;;;;;;5045912;28;20095;-74
2023/03/20 05:48:55;;;;;;;8.20;4.45;;;7.80;99.90;;;;;;5060265;28;20097;-71
2023/03/20 05:51:21;;;;;;;7.32;4.00;;;7.80;99.90;;;;;;5044194;28;20029;-73
2023/03/20 05:53:46;;;;;;;7.15;3.60;;;7.80;99.90;;;;;;5054844;28;20099;-74
2023/03/20 05:56:12;;;;;;;7.85;3.90;;;7.80;99.90;;;;;;5046186;28;20025;-75
2023/03/20 05:58:38;;;;;;;6.85;3.45;;;7.80;99.90;;;;;;5057178;28;20276;-73
2023/03/20 06:01:03;;;;;;;5.60;3.10;;;7.80;99.90;;;;;;5052402;28;20029;-73
2023/03/20 06:03:29;;;;;;;7.93;3.45;;;7.90;99.90;;;;;;5055715;28;20037;-70
2023/03/20 06:05:55;;;;;;;6.68;3.63;;;7.80;99.90;;;;;;5058970;28;20032;-73
2023/03/20 06:08:20;;;;;;;8.13;3.53;;;7.80;99.90;;;;;;5059507;28;20032;-74
2023/03/20 06:10:48;;;;;;;7.15;3.95;;;7.90;99.90;;;;;;5046899;28;20112;-75
2023/03/20 06:13:14;;;;;;;8.05;3.90;;;7.90;99.90;;;;;;5054139;28;20033;-75
2023/03/20 06:15:40;;;;;;;6.50;3.67;;;7.80;99.90;;;;;;5053889;28;20107;-75
2023/03/20 06:18:05;;;;;;;6.70;3.65;;;7.80;99.90;;;;;;5057751;28;20099;-67
2023/03/20 06:20:31;;;;;;;7.90;3.95;;;7.90;99.90;;;;;;5057534;28;20042;-72
2023/03/20 06:22:57;;;;;;;9.00;4.13;;;7.90;99.90;;;;;;5034528;28;20465;-75
2023/03/20 06:25:22;;;;;;;8.80;4.00;;;7.90;99.90;;;;;;5053110;28;20435;-74
2023/03/20 06:27:48;;;;;;;12.80;3.92;;;7.90;99.90;;;;;;5043420;28;20750;-74
2023/03/20 06:30:15;;;;;;;8.60;4.30;;;7.90;99.90;;;;;;5045167;28;20032;-75
2023/03/20 06:32:41;;;;;;;8.30;4.60;;;7.90;99.90;;;;;;5042409;28;20067;-74
2023/03/20 06:35:08;;;;;;;6.78;3.70;;;8.00;99.90;;;;;;5041649;28;20056;-66
2023/03/20 06:37:34;;;;;;;9.77;4.05;;;8.00;99.90;;;;;;5047644;28;20040;-74
2023/03/20 06:39:59;;;;;;;8.95;4.15;;;8.00;99.90;;;;;;5049958;28;20029;-65
2023/03/20 06:42:25;;;;;;;8.40;3.97;;;8.00;99.90;;;;;;5050525;28;20044;-71
2023/03/20 06:44:50;;;;;;;10.32;4.90;;;8.00;99.90;;;;;;5058089;28;20032;-70
2023/03/20 06:47:16;;;;;;;8.48;4.28;;;8.00;99.90;;;;;;5054000;28;20029;-73
2023/03/20 06:49:42;;;;;;;6.35;3.60;;;8.10;99.90;;;;;;5063501;28;20025;-73
2023/03/20 06:52:17;;;;;;;6.90;3.55;;;8.00;99.90;;;;;;5034533;28;20038;-66
2023/03/20 06:54:43;;;;;;;6.38;3.63;;;8.10;99.90;;;;;;5030798;28;20033;-70
2023/03/20 06:57:09;;;;;;;6.70;3.75;;;8.10;99.90;;;;;;5053291;28;20037;-66
2023/03/20 06:59:35;;;;;;;6.45;3.40;;;8.10;99.90;;;;;;5052698;28;20477;-72
2023/03/20 07:02:01;;;;;;;9.43;3.60;;;8.10;99.90;;;;;;5057959;28;20036;-73
2023/03/20 07:04:27;;;;;;;7.70;3.80;;;8.10;99.90;;;;;;5041572;28;20051;-74
2023/03/20 07:06:52;;;;;;;6.80;3.17;;;8.20;99.90;;;;;;5055405;28;20081;-67
2023/03/20 07:09:18;;;;;;;9.05;3.38;;;8.20;99.90;;;;;;5061004;28;20479;-74
2023/03/20 07:11:44;;;;;;;6.13;3.03;;;8.20;99.90;;;;;;5061627;28;20036;-73
2023/03/20 07:14:10;;;;;;;5.13;2.83;;;8.30;99.90;;;;;;5066497;28;20051;-66
2023/03/20 07:16:36;;;;;;;6.00;3.03;;;8.30;99.90;;;;;;5059161;28;20032;-74
2023/03/20 07:19:02;;;;;;;5.25;2.92;;;8.30;99.90;;;;;;5060180;28;20032;-74
2023/03/20 07:21:28;;;;;;;5.57;2.97;;;8.30;99.90;;;;;;5055752;28;20045;-73
2023/03/20 07:23:54;;;;;;;5.28;2.42;;;8.30;99.90;;;;;;5047873;28;20095;-72
2023/03/20 07:26:20;;;;;;;5.13;2.60;;;8.40;99.90;;;;;;5063324;28;20482;-73
2023/03/20 07:28:45;;;;;;;6.07;2.60;;;8.40;99.90;;;;;;5055767;28;20032;-73
2023/03/20 07:31:20;;;;;;;6.60;2.80;;;8.40;99.90;;;;;;5055092;28;20029;-67
2023/03/20 07:33:46;;;;;;;3.65;2.35;;;8.40;99.90;;;;;;5048134;28;20028;-73
2023/03/20 07:36:12;;;;;;;6.45;2.97;;;8.50;99.90;;;;;;5053514;28;20121;-67
2023/03/20 07:38:37;;;;;;;3.15;2.30;;;8.50;99.90;;;;;;5059830;28;20032;-73
2023/03/20 07:41:03;;;;;;;5.43;2.97;;;8.60;99.90;;;;;;5054753;28;20028;-74
2023/03/20 07:43:29;;;;;;;4.25;2.50;;;8.70;99.90;;;;;;5047483;28;21148;-74
2023/03/20 07:45:55;;;;;;;3.63;2.33;;;8.80;99.90;;;;;;5029203;28;20032;-70
2023/03/20 07:48:20;;;;;;;5.15;2.15;;;8.80;99.90;;;;;;5055907;28;20389;-75
2023/03/20 07:50:46;;;;;;;4.32;2.28;;;8.90;99.90;;;;;;5050187;28;20037;-75
2023/03/20 07:53:12;;;;;;;4.70;2.50;;;8.80;99.90;;;;;;5040718;28;20039;-66
2023/03/20 07:55:37;;;;;;;3.58;2.25;;;8.90;99.90;;;;;;5050861;28;20025;-74
2023/03/20 07:58:07;;;;;;;4.22;2.35;;;9.00;99.90;;;;;;5052807;28;20029;-73
2023/03/20 08:00:33;;;;;;;5.15;2.67;;;9.10;99.90;;;;;;5059265;28;20114;-70
2023/03/20 08:02:58;;;;;;;4.20;2.30;;;9.40;99.90;;;;;;5062737;28;20067;-74
2023/03/20 08:05:25;;;;;;;3.70;2.20;;;9.40;99.90;;;;;;5056483;28;20029;-73
2023/03/20 08:07:51;;;;;;;3.42;2.13;;;9.30;99.90;;;;;;5062787;28;20029;-74
2023/03/20 08:10:16;;;;;;;4.88;2.20;;;9.30;99.90;;;;;;5062926;28;20036;-73
2023/03/20 08:12:42;;;;;;;4.88;2.35;;;9.20;99.90;;;;;;5063075;28;20644;-74
2023/03/20 08:15:08;;;;;;;2.85;1.80;;;9.10;99.90;;;;;;5063737;28;20037;-73
2023/03/20 08:17:34;;;;;;;2.85;1.70;;;9.20;99.90;;;;;;5051977;28;20610;-73
2023/03/20 08:20:00;;;;;;;3.70;1.92;;;9.20;99.90;;;;;;5057150;28;20049;-73
2023/03/20 08:22:25;;;;;;;3.58;2.10;;;9.30;99.90;;;;;;5055248;28;20135;-72
2023/03/20 08:24:51;;;;;;;3.25;1.83;;;9.40;99.90;;;;;;5057352;28;20040;-74
2023/03/20 08:27:17;;;;;;;3.65;2.20;;;9.50;99.90;;;;;;5057675;28;20033;-67
2023/03/20 08:29:43;;;;;;;2.72;1.85;;;9.60;99.90;;;;;;5061260;28;20032;-70
2023/03/20 08:32:08;;;;;;;3.72;2.17;;;9.60;99.90;;;;;;5055336;28;20033;-73
2023/03/20 08:34:37;;;;;;;3.78;1.80;;;9.70;99.90;;;;;;5048842;28;20033;-73
2023/03/20 08:37:04;;;;;;;4.32;2.05;;;9.70;99.90;;;;;;5062221;28;20036;-70
2023/03/20 08:39:29;;;;;;;4.78;2.20;;;9.50;99.90;;;;;;5057135;28;20512;-69
2023/03/20 08:41:55;;;;;;;2.10;1.48;;;9.30;99.90;;;;;;5061754;28;20029;-69
2023/03/20 08:44:21;;;;;;;2.85;1.50;;;9.30;99.90;;;;;;5060571;28;20107;-70
2023/03/20 08:46:47;;;;;;;3.85;2.08;;;9.50;99.90;;;;;;5051427;28;20033;-71
2023/03/20 08:49:12;;;;;;;3.38;1.50;;;9.60;99.90;;;;;;5069743;28;20020;-70
2023/03/20 08:51:38;;;;;;;2.95;1.80;;;9.80;99.90;;;;;;5046007;28;20064;-68
2023/03/20 08:54:05;;;;;;;2.75;1.50;;;9.80;99.90;;;;;;5058505;28;20558;-71
2023/03/20 08:56:30;;;;;;;5.43;1.65;;;9.90;99.90;;;;;;5065201;28;20043;-71
2023/03/20 08:58:56;;;;;;;3.28;1.52;;;9.90;99.90;;;;;;5053164;28;20029;-72
2023/03/20 09:01:22;;;;;;;4.25;1.58;;;10.10;99.90;;;;;;5061793;28;20024;-71
2023/03/20 09:03:47;;;;;;;3.80;1.50;;;10.10;99.90;;;;;;5053321;28;20033;-71
2023/03/20 09:06:13;;;;;;;2.72;1.17;;;10.30;99.90;;;;;;5069935;28;20024;-71
2023/03/20 09:08:39;;;;;;;2.60;1.65;;;10.50;99.90;;;;;;5068484;28;20044;-71
2023/03/20 09:11:06;;;;;;;2.30;1.38;;;10.70;99.90;;;;;;5066103;28;20037;-69
2023/03/20 09:13:31;;;;;;;2.10;1.20;;;10.90;99.90;;;;;;5057220;28;20040;-71
2023/03/20 09:15:57;;;;;;;2.03;1.17;;;10.80;99.90;;;;;;5055912;28;20028;-71
2023/03/20 09:18:23;;;;;;;1.98;0.98;;;10.80;99.90;;;;;;5060039;28;20027;-70
2023/03/20 09:20:49;;;;;;;2.33;1.30;;;10.70;99.90;;;;;;5060778;28;20056;-71
2023/03/20 09:23:15;;;;;;;2.33;1.25;;;10.70;99.90;;;;;;5065347;28;20029;-69
2023/03/20 09:25:41;;;;;;;6.10;1.33;;;10.70;99.90;;;;;;5057519;28;20035;-71
2023/03/20 09:28:07;;;;;;;2.28;1.00;;;10.60;99.90;;;;;;5050477;28;20428;-71
2023/03/20 09:30:32;;;;;;;3.05;1.08;;;10.70;99.90;;;;;;5050490;28;20684;-70
2023/03/20 09:32:58;;;;;;;2.30;0.98;;;10.90;99.90;;;;;;5067845;28;20165;-71
2023/03/20 09:35:24;;;;;;;4.47;1.20;;;11.30;99.90;;;;;;5057290;28;20063;-71
2023/03/20 09:37:49;;;;;;;1.58;1.00;;;11.60;99.90;;;;;;5050282;28;20094;-70
2023/03/20 09:40:36;;;;;;;2.13;1.10;;;11.70;99.90;;;;;;5068516;28;20106;-69
2023/03/20 09:43:07;;;;;;;1.90;1.20;;;11.40;99.90;;;;;;5051926;28;20112;-71
2023/03/20 09:46:05;;;;;;;1.90;0.90;;;11.30;99.90;;;;;;5068379;28;20036;-69
2023/03/20 09:48:43;;;;;;;2.65;1.08;;;11.20;99.90;;;;;;5033591;28;20029;-71
2023/03/20 09:51:15;;;;;;;2.45;1.08;;;11.20;99.90;;;;;;5050826;28;20033;-71
2023/03/20 09:53:46;;;;;;;1.60;1.20;;;11.00;99.90;;;;;;5056627;28;20090;-70
2023/03/20 09:56:19;;;;;;;1.63;0.88;;;11.00;99.90;;;;;;5060128;28;20105;-71
2023/03/20 09:58:55;;;;;;;1.85;0.93;;;11.10;99.90;;;;;;5053056;28;20040;-69
2023/03/20 10:01:49;;;;;;;1.92;0.95;;;11.10;99.90;;;;;;5056569;28;20405;-65
2023/03/20 10:04:15;;;;;;;1.83;1.00;;;11.10;99.90;;;;;;5059210;28;20092;-70
2023/03/20 10:06:41;;;;;;;1.20;0.85;;;11.10;99.90;;;;;;5059742;28;20473;-71
2023/03/20 10:09:23;;;;;;;3.83;1.40;;;11.00;99.90;;;;;;5049744;28;20031;-71
2023/03/20 10:12:28;;;;;;;1.65;0.80;;;11.00;99.90;;;;;;5055333;28;20036;-71
2023/03/20 10:15:14;;;;;;;1.63;0.80;;;11.00;99.90;;;;;;5024318;28;20076;-71
2023/03/20 10:17:57;;;;;;;2.15;1.00;;;10.90;99.90;;;;;;5067137;28;20096;-70
2023/03/20 10:20:30;;;;;;;2.03;0.85;;;10.80;99.90;;;;;;5049080;28;20048;-65
2023/03/20 10:23:02;;;;;;;1.40;0.95;;;10.80;99.90;;;;;;5055507;28;20040;-70
2023/03/20 10:25:37;;;;;;;1.73;0.80;;;10.90;99.90;;;;;;5064348;28;20045;-69
2023/03/20 10:28:13;;;;;;;3.67;0.95;;;10.90;99.90;;;;;;5059275;28;20034;-69
2023/03/20 10:31:06;;;;;;;3.03;0.90;;;11.00;99.90;;;;;;5058560;28;20044;-71
2023/03/20 10:33:38;;;;;;;1.35;0.93;;;11.20;99.90;;;;;;5053806;28;20032;-71
2023/03/20 10:36:26;;;;;;;2.78;1.17;;;11.10;99.90;;;;;;5056704;28;20033;-71
2023/03/20 10:39:17;;;;;;;2.92;1.00;;;11.10;99.90;;;;;;5048495;28;20154;-71
2023/03/20 10:41:51;;;;;;;2.83;1.30;;;11.10;99.90;;;;;;5049947;28;20024;-69
2023/03/20 10:44:28;;;;;;;2.45;1.23;;;11.00;99.90;;;;;;5048888;28;20397;-71
2023/03/20 10:46:56;;;;;;;1.70;1.00;;;11.10;99.90;;;;;;5054616;28;20033;-70
2023/03/20 10:49:45;;;;;;;1.63;0.75;;;11.00;99.90;;;;;;5054998;28;20031;-65
2023/03/20 10:52:23;;;;;;;1.60;0.60;;;11.10;99.90;;;;;;5050212;28;20028;-71
2023/03/20 10:54:56;;;;;;;0.77;0.50;;;11.30;99.90;;;;;;5046313;28;20040;-71
2023/03/20 10:57:25;;;;;;;1.00;0.70;;;11.30;99.90;;;;;;5030531;28;20013;-65
2023/03/20 10:59:55;;;;;;;0.90;0.50;;;11.30;99.90;;;;;;5063195;28;20382;-70
2023/03/20 11:02:24;;;;;;;1.17;0.50;;;11.40;99.90;;;;;;5055550;28;20111;-71
2023/03/20 11:04:50;;;;;;;1.33;0.50;;;11.30;99.90;;;;;;5059892;28;20047;-69
2023/03/20 11:07:18;;;;;;;1.73;0.75;;;11.10;99.90;;;;;;5066818;28;20380;-70
2023/03/20 11:09:44;;;;;;;1.15;0.80;;;11.10;99.90;;;;;;5050344;28;20020;-70
2023/03/20 11:12:19;;;;;;;1.50;0.90;;;11.00;99.90;;;;;;5053593;28;20381;-70
2023/03/20 11:14:45;;;;;;;2.63;1.30;;;11.00;99.90;;;;;;5047611;28;20060;-67
2023/03/20 11:17:11;;;;;;;3.15;1.30;;;11.00;99.90;;;;;;5055253;28;20056;-71
2023/03/20 11:19:42;;;;;;;1.88;1.00;;;11.00;99.90;;;;;;5046194;28;20393;-70
2023/03/20 11:22:20;;;;;;;2.38;1.15;;;10.90;99.90;;;;;;5056304;28;20485;-71
2023/03/20 11:24:54;;;;;;;1.75;1.00;;;10.80;99.90;;;;;;5068815;28;20036;-70
2023/03/20 11:27:31;;;;;;;2.92;1.42;;;10.80;99.90;;;;;;5064018;28;20028;-69
2023/03/20 11:30:00;;;;;;;2.53;1.30;;;10.80;99.90;;;;;;5044597;28;20029;-71
2023/03/20 11:32:26;;;;;;;2.00;1.20;;;10.80;99.90;;;;;;5059707;28;20078;-65
2023/03/20 11:34:56;;;;;;;2.33;1.20;;;10.70;99.90;;;;;;5066447;28;20077;-71
2023/03/20 11:37:28;;;;;;;2.40;1.30;;;10.80;99.90;;;;;;5071590;28;20497;-71
2023/03/20 11:40:16;;;;;;;2.03;0.95;;;10.80;99.90;;;;;;5060967;28;20495;-70
2023/03/20 11:43:00;;;;;;;3.85;1.27;;;10.80;99.90;;;;;;5050281;28;20033;-70
2023/03/20 11:45:27;;;;;;;3.60;1.38;;;10.80;99.90;;;;;;5056126;28;20033;-66
2023/03/20 11:47:55;;;;;;;1.75;1.10;;;10.80;99.90;;;;;;5052052;28;20029;-71
2023/03/20 11:50:42;;;;;;;4.30;1.48;;;10.80;99.90;;;;;;5053592;28;20100;-70
2023/03/20 11:53:26;;;;;;;1.92;1.13;;;10.80;99.90;;;;;;5063886;28;20033;-71
2023/03/20 11:56:06;;;;;;;2.63;1.52;;;10.90;99.90;;;;;;5063711;28;20028;-71
2023/03/20 11:58:33;;;;;;;3.30;2.03;;;10.90;99.90;;;;;;5066121;28;20503;-71
2023/03/20 12:01:01;;;;;;;2.35;1.50;;;11.00;99.90;;;;;;5049828;28;21789;-71
2023/03/20 12:03:38;;;;;;;4.07;1.55;;;11.10;99.90;;;;;;5050611;28;20535;-66
2023/03/20 12:06:14;;;;;;;3.08;1.60;;;11.00;99.90;;;;;;5070734;28;20036;-71
2023/03/20 12:08:42;;;;;;;3.75;1.77;;;11.00;99.90;;;;;;5054865;28;20033;-69
2023/03/20 12:11:42;;;;;;;3.65;1.60;;;11.00;99.90;;;;;;5045491;28;20031;-71
2023/03/20 12:14:24;;;;;;;6.93;1.75;;;11.00;99.90;;;;;;5067754;28;20040;-70
2023/03/20 12:17:17;;;;;;;3.78;1.40;;;11.00;99.90;;;;;;5055778;28;20025;-69
2023/03/20 12:19:44;;;;;;;4.20;1.73;;;11.00;99.90;;;;;;5057991;28;20028;-69
2023/03/20 12:22:23;;;;;;;3.22;1.60;;;11.00;99.90;;;;;;5051656;28;20069;-69
2023/03/20 12:25:06;;;;;;;3.92;1.60;;;11.00;99.90;;;;;;5066391;28;20063;-69
2023/03/20 12:27:47;;;;;;;4.85;1.30;;;11.00;99.90;;;;;;5057832;28;20029;-69
2023/03/20 12:30:21;;;;;;;2.42;1.38;;;11.00;99.90;;;;;;5052682;28;20044;-70
2023/03/20 12:32:59;;;;;;;3.95;1.60;;;11.10;99.90;;;;;;5060900;28;20125;-71
2023/03/20 12:35:36;;;;;;;3.00;1.60;;;11.10;99.90;;;;;;5042531;28;20025;-70
2023/03/20 12:38:03;;;;;;;2.78;1.50;;;11.30;99.90;;;;;;5058641;28;20086;-71
2023/03/20 12:40:42;;;;;;;2.95;1.63;;;11.40;99.90;;;;;;5062986;28;20039;-64
2023/03/20 12:43:20;;;;;;;3.22;1.60;;;11.50;99.90;;;;;;5053180;28;20075;-71
2023/03/20 12:46:26;;;;;;;3.97;1.80;;;11.60;99.90;;;;;;5066859;28;20032;-70
2023/03/20 12:49:14;;;;;;;4.32;1.77;;;11.40;99.90;;;;;;5046702;28;20794;-71
2023/03/20 12:52:07;;;;;;;5.15;1.50;;;11.30;99.90;;;;;;5044087;28;20045;-71
2023/03/20 12:55:08;;;;;;;2.75;1.63;;;11.20;99.90;;;;;;5046998;28;20514;-66
2023/03/20 12:57:37;;;;;;;;;;;11.10;99.90;;;;;;5038978;28;20043;-71
2023/03/20 13:00:30;;;;;;;3.15;2.05;;;11.20;99.90;;;;;;5056006;28;19916;-71
2023/03/20 13:03:21;;;;;;;2.80;1.60;;;11.20;99.90;;;;;;5057212;28;20044;-70
2023/03/20 13:06:08;;;;;;;2.80;1.83;;;11.40;99.90;;;;;;5065600;28;20029;-71
2023/03/20 13:08:49;;;;;;;4.00;2.00;;;11.50;99.90;;;;;;5054753;28;20037;-70
2023/03/20 13:11:21;;;;;;;2.95;1.75;;;11.70;99.90;;;;;;5054265;28;20704;-70